Time;durP1;ratioP1;P1;durP2;ratioP2;P2;SDS_P1;SDS_P2;PMS_P1;PMS_P2;Temp;Humidity;BMP_temperature;BMP_pressure;BME280_temperature;BME280_humidity;BME280_pressure;Samples;Min_cycle;Max_cycle;Signal;HPM_P1;HPM_P2
2022/10/01 00:00:00;;;;;;;10.65;6.75;;;;;;;9.67;74.71;99182.88;341005;28;1263;-70
2022/10/01 00:00:12;;;;;;;11.00;6.80;;;;;;;9.67;74.57;99180.28;340244;28;1714;-70
2022/10/01 00:00:25;;;;;;;10.63;6.63;;;;;;;9.69;74.74;99181.06;340933;29;1172;-70
2022/10/01 00:00:37;;;;;;;9.68;6.70;;;;;;;9.69;74.78;99178.47;340913;29;1059;-70
2022/10/01 00:00:51;;;;;;;8.80;6.47;;;;;;;9.69;74.79;99179.31;340927;29;1035;-70
2022/10/01 00:01:05;;;;;;;10.18;6.93;;;;;;;9.71;74.70;99179.28;340850;29;1173;-70
2022/10/01 00:01:18;;;;;;;9.82;7.22;;;;;;;9.72;74.51;99175.78;340322;29;1769;-70
2022/10/01 00:01:30;;;;;;;8.75;6.90;;;;;;;9.72;74.61;99175.78;341152;29;1087;-70
2022/10/01 00:01:43;;;;;;;8.48;6.78;;;;;;;9.74;74.75;99174.81;340729;29;1011;-70
2022/10/01 00:01:55;;;;;;;8.60;6.78;;;;;;;9.75;74.31;99175.66;340819;29;1084;-70
2022/10/01 00:02:07;;;;;;;10.98;7.20;;;;;;;9.75;74.27;99176.50;340685;29;1398;-70
2022/10/01 00:02:19;;;;;;;10.50;6.90;;;;;;;9.75;74.48;99173.91;340090;29;1260;-70
2022/10/01 00:02:35;;;;;;;11.02;6.95;;;;;;;9.77;74.33;99181.63;340263;28;1461;-70
2022/10/01 00:02:47;;;;;;;8.95;6.90;;;;;;;9.76;74.13;99172.19;340700;28;1262;-70
2022/10/01 00:03:00;;;;;;;8.20;6.50;;;;;;;9.76;74.30;99174.78;340796;28;1125;-70
2022/10/01 00:03:12;;;;;;;9.15;6.65;;;;;;;9.75;74.11;99176.50;342079;28;1046;-70
2022/10/01 00:03:26;;;;;;;10.05;6.80;;;;;;;9.75;74.18;99173.06;342107;28;1164;-70
2022/10/01 00:03:38;;;;;;;9.18;6.90;;;;;;;9.74;73.98;99166.19;342318;28;1080;-72
2022/10/01 00:03:50;;;;;;;9.43;6.95;;;;;;;9.75;74.05;99170.47;340794;29;1031;-72
2022/10/01 00:04:02;;;;;;;9.60;6.82;;;;;;;9.77;74.11;99173.84;340919;29;1012;-72
2022/10/01 00:04:14;;;;;;;9.43;6.85;;;;;;;9.77;73.88;99173.84;340590;29;1147;-71
2022/10/01 00:04:26;;;;;;;9.23;7.05;;;;;;;9.75;74.08;99175.66;340187;28;1815;-70
2022/10/01 00:04:38;;;;;;;10.13;7.18;;;;;;;9.74;73.93;99174.81;341927;28;1092;-70
2022/10/01 00:04:50;;;;;;;10.25;7.00;;;;;;;9.74;73.91;99176.59;340903;29;1131;-70
2022/10/01 00:05:06;;;;;;;10.40;7.05;;;;;;;9.74;74.05;99181.78;340550;29;1503;-70
2022/10/01 00:05:18;;;;;;;9.45;6.80;;;;;;;9.74;73.64;99179.19;340550;29;1183;-70
2022/10/01 00:05:30;;;;;;;8.77;6.60;;;;;;;9.73;73.66;99173.13;340713;29;1121;-71
2022/10/01 00:05:43;;;;;;;9.45;6.78;;;;;;;9.74;73.64;99179.19;340576;29;1050;-71
2022/10/01 00:06:18;;;;;;;11.52;6.82;;;;;;;9.76;73.34;99177.38;341010;29;1027;-70
2022/10/01 00:06:30;;;;;;;7.72;6.50;;;;;;;9.76;73.69;99177.38;340198;29;1994;-71
2022/10/01 00:06:42;;;;;;;8.65;6.68;;;;;;;9.76;73.41;99182.56;340871;29;1218;-71
2022/10/01 00:06:58;;;;;;;9.50;6.70;;;;;;;9.79;73.49;99182.44;341674;28;1241;-71
2022/10/01 00:07:13;;;;;;;9.45;6.60;;;;;;;9.79;73.42;99182.44;342295;28;1037;-70
2022/10/01 00:07:26;;;;;;;9.43;6.88;;;;;;;9.80;73.45;99173.75;342352;28;1412;-70
2022/10/01 00:07:39;;;;;;;9.38;6.97;;;;;;;9.79;73.57;99179.84;342049;28;1084;-70
2022/10/01 00:07:51;;;;;;;9.05;6.95;;;;;;;9.79;73.61;99182.44;338562;29;1546;-70
2022/10/01 00:08:03;;;;;;;9.40;6.82;;;;;;;9.80;73.41;99184.13;338288;29;1812;-70
2022/10/01 00:08:15;;;;;;;9.55;6.75;;;;;;;9.79;73.36;99182.44;337947;29;1595;-70
2022/10/01 00:08:28;;;;;;;9.40;6.82;;;;;;;9.78;73.46;99180.75;339385;29;1501;-70
2022/10/01 00:08:41;;;;;;;11.48;6.80;;;;;;;9.79;73.41;99178.06;340312;29;1319;-70
2022/10/01 00:08:53;;;;;;;12.02;6.63;;;;;;;9.78;73.60;99185.94;340847;29;1199;-70
2022/10/01 00:09:05;;;;;;;10.20;6.60;;;;;;;9.79;73.21;99178.06;340617;29;1108;-70
2022/10/01 00:09:17;;;;;;;9.65;6.85;;;;;;;9.78;73.20;99172.97;340153;29;1378;-70
2022/10/01 00:09:32;;;;;;;10.18;7.05;;;;;;;9.75;73.09;99179.09;339513;29;1226;-70
2022/10/01 00:09:45;;;;;;;10.75;7.20;;;;;;;9.74;73.08;99177.41;339615;29;1283;-70
2022/10/01 00:09:57;;;;;;;9.10;6.82;;;;;;;9.73;72.91;99183.50;339672;28;1618;-70
2022/10/01 00:10:11;;;;;;;8.13;6.38;;;;;;;9.74;73.20;99176.59;340541;29;1145;-70
2022/10/01 00:10:23;;;;;;;8.52;6.30;;;;;;;9.75;73.24;99176.50;340906;29;1344;-70
2022/10/01 00:10:37;;;;;;;10.20;6.43;;;;;;;9.77;73.34;99182.47;341247;28;1039;-71
2022/10/01 00:10:48;;;;;;;9.50;6.40;;;;;;;9.77;73.14;99179.03;341044;28;1033;-70
2022/10/01 00:11:13;;;;;;;9.70;6.50;;;;;;;9.76;73.06;99179.97;340378;28;1814;-70
2022/10/01 00:11:25;;;;;;;9.25;6.70;;;;;;;9.74;73.25;99185.19;340492;28;1024;-71
2022/10/01 00:11:37;;;;;;;8.80;6.55;;;;;;;9.76;73.30;99177.38;341104;29;1877;-71
2022/10/01 00:11:49;;;;;;;8.38;6.50;;;;;;;9.78;73.09;99181.59;340877;28;1436;-71
2022/10/01 00:12:02;;;;;;;9.63;6.43;;;;;;;9.79;73.38;99177.25;341090;28;1074;-71
2022/10/01 00:12:15;;;;;;;9.52;6.18;;;;;;;9.78;73.22;99175.56;340867;28;1166;-71
2022/10/01 00:12:27;;;;;;;11.45;6.35;;;;;;;9.75;73.29;99183.44;340832;29;1048;-70
2022/10/01 00:12:44;;;;;;;10.82;6.82;;;;;;;9.74;73.49;99184.38;340592;29;1056;-70
2022/10/01 00:12:57;;;;;;;9.10;6.90;;;;;;;9.75;73.19;99180.84;341083;28;1045;-70
2022/10/01 00:13:10;;;;;;;8.80;6.53;;;;;;;9.74;73.38;99181.78;339301;29;1097;-70
2022/10/01 00:13:21;;;;;;;10.35;6.40;;;;;;;9.72;73.22;99180.97;339674;29;1646;-70
2022/10/01 00:13:34;;;;;;;10.73;6.90;;;;;;;9.73;73.48;99182.66;339439;29;1901;-70
2022/10/01 00:13:48;;;;;;;10.13;7.00;;;;;;;9.70;73.50;99177.56;339529;29;1089;-71
2022/10/01 00:14:00;;;;;;;9.52;6.93;;;;;;;9.71;73.57;99184.47;339559;29;1104;-71
2022/10/01 00:14:12;;;;;;;9.20;6.70;;;;;;;9.72;73.50;99180.97;339766;29;1171;-71
2022/10/01 00:14:26;;;;;;;9.65;6.30;;;;;;;9.71;73.08;99184.47;338418;29;1623;-70
2022/10/01 00:14:38;;;;;;;8.98;6.20;;;;;;;9.72;73.23;99188.78;337665;29;2060;-72
2022/10/01 00:14:50;;;;;;;8.70;6.55;;;;;;;9.72;73.50;99180.97;339280;29;1042;-72
2022/10/01 00:15:08;;;;;;;7.97;6.43;;;;;;;9.69;73.44;99175.88;337671;29;1740;-71
2022/10/01 00:15:27;;;;;;;7.60;6.07;;;;;;;9.67;73.48;99177.69;338872;29;1712;-71
2022/10/01 00:15:40;;;;;;;9.82;6.60;;;;;;;9.67;73.62;99178.53;339381;29;1800;-71
2022/10/01 00:15:52;;;;;;;10.30;6.97;;;;;;;9.68;73.67;99179.38;339027;29;2121;-71
2022/10/01 00:16:07;;;;;;;8.75;6.57;;;;;;;9.68;73.62;99184.56;338871;29;1772;-71
2022/10/01 00:16:26;;;;;;;8.65;6.32;;;;;;;9.65;73.59;99182.09;339165;29;1258;-71
2022/10/01 00:16:38;;;;;;;9.95;6.47;;;;;;;9.68;73.54;99184.56;341217;29;876;-71
2022/10/01 00:16:50;;;;;;;9.43;6.40;;;;;;;9.65;73.57;99182.94;340436;29;1032;-71
2022/10/01 00:17:02;;;;;;;7.65;6.18;;;;;;;9.66;73.42;99182.03;341672;28;746;-71
2022/10/01 00:17:15;;;;;;;9.65;6.43;;;;;;;9.66;73.22;99181.16;342244;28;1071;-71
2022/10/01 00:17:27;;;;;;;10.23;6.53;;;;;;;9.66;73.44;99182.03;342049;28;1008;-71
2022/10/01 00:17:39;;;;;;;10.02;6.43;;;;;;;9.67;73.12;99177.69;342131;28;1240;-71
2022/10/01 00:17:52;;;;;;;8.45;6.30;;;;;;;9.65;73.21;99182.94;340122;28;1595;-71
2022/10/01 00:18:04;;;;;;;8.48;6.30;;;;;;;9.67;73.34;99182.88;341052;29;1206;-71
2022/10/01 00:18:16;;;;;;;9.13;6.20;;;;;;;9.67;73.55;99177.69;341037;28;2032;-71
2022/10/01 00:18:29;;;;;;;8.90;6.07;;;;;;;9.68;73.64;99184.56;340935;28;1774;-71
2022/10/01 00:18:44;;;;;;;7.88;6.18;;;;;;;9.67;73.36;99172.50;340391;28;1661;-71
2022/10/01 00:18:56;;;;;;;7.85;6.32;;;;;;;9.68;73.36;99184.56;340947;29;2133;-71
2022/10/01 00:19:12;;;;;;;8.25;6.25;;;;;;;9.69;73.62;99186.28;341113;28;1111;-71
2022/10/01 00:19:24;;;;;;;8.20;6.30;;;;;;;9.70;73.33;99180.16;341347;28;1997;-72
2022/10/01 00:19:36;;;;;;;8.23;6.28;;;;;;;9.72;73.12;99180.97;340369;28;1451;-71
2022/10/01 00:19:48;;;;;;;8.13;5.75;;;;;;;9.73;73.46;99177.47;340449;29;1944;-71
2022/10/01 00:20:02;;;;;;;7.95;5.80;;;;;;;9.73;73.11;99182.66;341155;29;1266;-71
2022/10/01 00:20:24;;;;;;;10.13;6.38;;;;;;;9.71;73.57;99184.47;341813;28;1188;-71
2022/10/01 00:20:42;;;;;;;8.93;6.20;;;;;;;9.72;73.90;99191.34;340027;28;1838;-71
2022/10/01 00:20:54;;;;;;;9.82;6.25;;;;;;;9.72;73.54;99186.16;340415;29;1876;-71
2022/10/01 00:21:07;;;;;;;9.55;6.55;;;;;;;9.72;73.01;99180.97;340043;29;1628;-71
2022/10/01 00:21:22;;;;;;;8.40;6.47;;;;;;;9.71;73.13;99174.09;340007;28;1577;-71
2022/10/01 00:21:34;;;;;;;8.68;6.35;;;;;;;9.72;73.43;99176.63;338536;29;1515;-71
2022/10/01 00:21:47;;;;;;;9.00;6.40;;;;;;;9.72;73.06;99180.97;339614;29;1047;-71
2022/10/01 00:21:59;;;;;;;9.73;6.20;;;;;;;9.72;73.16;99181.81;340719;29;1097;-71
2022/10/01 00:22:11;;;;;;;10.13;6.20;;;;;;;9.70;73.29;99178.44;340344;29;1374;-71
2022/10/01 00:22:23;;;;;;;9.15;6.25;;;;;;;9.71;73.30;99180.09;340876;28;1442;-71
2022/10/01 00:22:35;;;;;;;8.55;6.30;;;;;;;9.72;73.16;99180.97;339351;29;1626;-71
2022/10/01 00:22:47;;;;;;;7.55;5.95;;;;;;;9.70;72.91;99178.44;340473;29;1547;-71
2022/10/01 00:22:59;;;;;;;7.28;5.68;;;;;;;9.71;72.95;99180.09;340685;29;1464;-71
2022/10/01 00:23:13;;;;;;;7.35;5.82;;;;;;;9.71;72.95;99185.31;339658;28;1650;-71
2022/10/01 00:23:25;;;;;;;9.75;5.95;;;;;;;9.71;73.18;99174.09;341947;28;1158;-71
2022/10/01 00:23:37;;;;;;;10.48;6.07;;;;;;;9.71;73.28;99174.91;340407;28;1606;-71
2022/10/01 00:23:58;;;;;;;8.98;5.88;;;;;;;9.69;73.44;99173.28;340280;29;1817;-71
2022/10/01 00:24:11;;;;;;;9.82;6.15;;;;;;;9.67;73.66;99177.69;341035;28;1070;-71
2022/10/01 00:24:23;;;;;;;11.27;6.30;;;;;;;9.64;73.84;99182.97;341342;28;1230;-71
2022/10/01 00:24:36;;;;;;;12.07;6.20;;;;;;;9.63;73.81;99186.50;340831;28;1027;-71
2022/10/01 00:24:48;;;;;;;10.90;6.47;;;;;;;9.58;73.80;99179.72;340948;28;1129;-71
2022/10/01 00:25:00;;;;;;;11.15;6.75;;;;;;;9.59;73.64;99176.22;341135;28;1095;-71
2022/10/01 00:25:12;;;;;;;11.38;6.75;;;;;;;9.59;73.80;99180.56;340964;28;1260;-71
2022/10/01 00:25:24;;;;;;;9.93;6.38;;;;;;;9.59;73.93;99184.00;341927;28;1320;-71
2022/10/01 00:25:36;;;;;;;8.35;5.97;;;;;;;9.58;73.89;99184.91;340484;28;1629;-71
2022/10/01 00:25:51;;;;;;;8.48;6.22;;;;;;;9.56;74.12;99178.94;340416;28;1785;-71
2022/10/01 00:26:15;;;;;;;8.73;6.70;;;;;;;9.54;74.37;99180.72;340916;29;1078;-71
2022/10/01 00:26:30;;;;;;;8.52;6.38;;;;;;;9.56;74.54;99185.88;342380;28;998;-71
2022/10/01 00:26:44;;;;;;;8.43;6.40;;;;;;;9.55;74.57;99186.75;340262;28;1581;-72
2022/10/01 00:26:56;;;;;;;9.38;6.60;;;;;;;9.55;74.05;99179.81;339922;28;1940;-72
2022/10/01 00:27:09;;;;;;;9.82;6.70;;;;;;;9.51;74.38;99192.97;340823;28;1061;-72
2022/10/01 00:27:21;;;;;;;10.48;6.75;;;;;;;9.51;74.37;99187.78;341344;28;1352;-72
2022/10/01 00:27:34;;;;;;;9.55;6.53;;;;;;;9.47;73.80;99181.84;342531;28;1022;-72
2022/10/01 00:27:46;;;;;;;8.85;6.45;;;;;;;9.46;74.26;99182.75;341843;28;1863;-72
2022/10/01 00:27:58;;;;;;;8.45;6.28;;;;;;;9.47;74.26;99187.03;341380;28;1966;-72
2022/10/01 00:28:10;;;;;;;8.15;6.30;;;;;;;9.48;74.37;99188.75;341984;28;1055;-72
2022/10/01 00:28:23;;;;;;;8.57;6.30;;;;;;;9.49;74.40;99185.22;342941;28;1268;-72
2022/10/01 00:28:35;;;;;;;8.68;6.03;;;;;;;9.49;74.37;99189.56;342956;28;1918;-72
2022/10/01 00:28:53;;;;;;;9.63;6.25;;;;;;;9.51;74.26;99193.81;341583;28;1908;-72
2022/10/01 00:29:10;;;;;;;10.65;6.55;;;;;;;9.52;74.54;99184.28;340933;29;1104;-72
2022/10/01 00:29:22;;;;;;;9.25;6.53;;;;;;;9.53;73.98;99186.81;340116;28;1638;-72
2022/10/01 00:29:35;;;;;;;8.75;6.20;;;;;;;9.55;74.37;99182.41;340356;29;1973;-72
2022/10/01 00:29:47;;;;;;;8.07;6.18;;;;;;;9.55;74.08;99185.00;338757;29;2619;-72
2022/10/01 00:29:59;;;;;;;8.75;6.35;;;;;;;9.55;74.19;99185.00;339587;29;1228;-71
2022/10/01 00:30:11;;;;;;;8.90;6.88;;;;;;;9.54;74.34;99185.94;337558;29;1586;-72
2022/10/01 00:30:23;;;;;;;8.90;6.75;;;;;;;9.55;74.37;99182.41;338651;29;1580;-72
2022/10/01 00:30:35;;;;;;;8.55;6.50;;;;;;;9.57;74.28;99182.38;337555;29;1747;-72
2022/10/01 00:30:51;;;;;;;8.88;6.63;;;;;;;9.58;74.19;99187.50;338133;29;2021;-71
2022/10/01 00:31:05;;;;;;;9.88;6.70;;;;;;;9.58;74.17;99190.09;338266;29;1068;-71
2022/10/01 00:31:18;;;;;;;10.45;6.43;;;;;;;9.59;74.21;99189.19;338598;29;1087;-71
2022/10/01 00:31:30;;;;;;;10.80;6.38;;;;;;;9.62;73.84;99184.78;340598;29;1197;-71
2022/10/01 00:31:43;;;;;;;10.90;6.50;;;;;;;9.62;74.11;99184.78;338397;29;1780;-72
2022/10/01 00:31:56;;;;;;;9.38;6.47;;;;;;;9.62;73.67;99189.97;340170;29;1422;-72
2022/10/01 00:32:08;;;;;;;10.52;6.78;;;;;;;9.63;73.64;99189.09;340047;29;1641;-72
2022/10/01 00:32:20;;;;;;;9.50;6.50;;;;;;;9.63;73.84;99191.69;340740;28;1691;-72
2022/10/01 00:32:32;;;;;;;8.88;6.50;;;;;;;9.62;73.85;99185.66;341295;28;1526;-72
2022/10/01 00:32:44;;;;;;;8.52;6.63;;;;;;;9.64;73.84;99188.16;341914;28;1287;-72
2022/10/01 00:32:56;;;;;;;8.20;6.60;;;;;;;9.63;73.88;99179.53;340544;29;1044;-72
2022/10/01 00:33:08;;;;;;;8.52;6.63;;;;;;;9.62;73.79;99185.66;340737;29;1773;-72
2022/10/01 00:33:20;;;;;;;8.73;6.63;;;;;;;9.62;73.87;99184.78;340719;28;1226;-72
2022/10/01 00:33:32;;;;;;;8.38;6.60;;;;;;;9.63;73.92;99189.09;340928;29;1028;-72
2022/10/01 00:33:44;;;;;;;9.02;6.50;;;;;;;9.64;73.88;99185.56;339591;28;1706;-72
2022/10/01 00:33:57;;;;;;;8.75;6.63;;;;;;;9.60;73.93;99188.28;340636;29;1878;-72
2022/10/01 00:34:14;;;;;;;9.75;6.60;;;;;;;9.61;74.07;99189.13;340732;29;1303;-72
2022/10/01 00:34:27;;;;;;;10.43;6.63;;;;;;;9.62;73.87;99184.78;341863;28;1100;-72
2022/10/01 00:34:39;;;;;;;9.65;6.60;;;;;;;9.62;73.93;99185.66;340783;28;1809;-72
2022/10/01 00:34:52;;;;;;;8.82;6.28;;;;;;;9.58;74.11;99184.06;339957;28;1867;-72
2022/10/01 00:35:08;;;;;;;10.98;6.57;;;;;;;9.57;74.10;99190.97;341431;28;1643;-72
2022/10/01 00:35:21;;;;;;;10.75;6.75;;;;;;;9.53;74.64;99191.16;341574;28;1618;-71
2022/10/01 00:35:33;;;;;;;8.75;6.63;;;;;;;9.51;74.60;99193.81;341966;28;1083;-71
2022/10/01 00:35:45;;;;;;;8.93;6.80;;;;;;;9.50;74.69;99192.13;341207;28;1757;-71
2022/10/01 00:35:57;;;;;;;9.00;6.90;;;;;;;9.49;74.98;99192.16;341995;28;1916;-72
2022/10/01 00:36:10;;;;;;;8.18;6.65;;;;;;;9.51;74.90;99191.22;342146;28;1071;-72
2022/10/01 00:36:23;;;;;;;8.40;6.43;;;;;;;9.52;74.92;99197.25;342599;28;1278;-72
2022/10/01 00:36:35;;;;;;;8.70;6.55;;;;;;;9.53;74.84;99194.59;342892;28;1795;-72
2022/10/01 00:36:48;;;;;;;12.32;6.90;;;;;;;9.54;74.70;99193.72;341576;28;1772;-72
2022/10/01 00:37:00;;;;;;;12.18;6.90;;;;;;;9.57;74.65;99190.97;341948;28;1064;-72
2022/10/01 00:37:11;;;;;;;9.00;6.85;;;;;;;9.58;74.51;99194.44;341012;28;1394;-72
2022/10/01 00:37:24;;;;;;;8.25;6.53;;;;;;;9.56;74.61;99197.09;340735;28;1408;-71
2022/10/01 00:37:36;;;;;;;8.90;6.60;;;;;;;9.56;74.74;99186.72;340358;28;1716;-71
2022/10/01 00:37:50;;;;;;;11.85;7.13;;;;;;;9.55;74.72;99200.56;340397;29;1760;-71
2022/10/01 00:38:02;;;;;;;10.93;6.90;;;;;;;9.58;74.69;99190.09;339722;29;1060;-71
2022/10/01 00:38:14;;;;;;;9.60;6.65;;;;;;;9.58;74.63;99187.50;339560;28;1461;-71
2022/10/01 00:38:28;;;;;;;10.15;7.00;;;;;;;9.58;74.54;99190.09;340561;29;1626;-71
2022/10/01 00:38:40;;;;;;;9.32;6.90;;;;;;;9.58;74.59;99184.91;340586;29;1008;-71
2022/10/01 00:38:53;;;;;;;9.70;6.43;;;;;;;9.57;74.19;99188.41;340320;29;1438;-71
2022/10/01 00:39:05;;;;;;;9.27;6.38;;;;;;;9.58;74.21;99189.25;340850;29;1663;-71
2022/10/01 00:39:16;;;;;;;9.18;6.50;;;;;;;9.57;74.36;99188.41;340844;28;1332;-71
2022/10/01 00:39:28;;;;;;;8.43;6.50;;;;;;;9.56;74.47;99186.72;341007;29;1804;-72
2022/10/01 00:39:40;;;;;;;8.65;6.65;;;;;;;9.57;74.47;99187.56;340587;28;1607;-72
2022/10/01 00:39:52;;;;;;;8.40;6.55;;;;;;;9.57;74.27;99188.41;340316;29;2136;-72
2022/10/01 00:40:05;;;;;;;8.57;6.43;;;;;;;9.58;74.38;99190.09;339869;28;1677;-72
2022/10/01 00:40:21;;;;;;;8.30;6.47;;;;;;;9.57;74.58;99193.59;341146;28;1188;-72
2022/10/01 00:40:33;;;;;;;9.23;6.68;;;;;;;9.60;74.68;99190.06;341707;28;1191;-72
2022/10/01 00:40:45;;;;;;;9.63;6.60;;;;;;;9.58;74.56;99187.50;339748;28;1930;-72
2022/10/01 00:40:57;;;;;;;8.93;6.38;;;;;;;9.60;74.37;99193.47;340826;28;2039;-71
2022/10/01 00:41:09;;;;;;;10.30;6.60;;;;;;;9.59;74.17;99185.75;341107;28;1619;-72
2022/10/01 00:41:21;;;;;;;18.40;6.82;;;;;;;9.60;74.23;99187.47;339985;28;1629;-71
2022/10/01 00:41:34;;;;;;;17.33;6.72;;;;;;;9.60;74.20;99188.28;340769;29;1985;-71
2022/10/01 00:41:46;;;;;;;16.35;6.18;;;;;;;9.63;74.14;99192.53;340915;29;1191;-72
2022/10/01 00:41:58;;;;;;;6.95;5.70;;;;;;;9.63;74.36;99187.34;340479;29;1190;-72
2022/10/01 00:42:20;;;;;;;7.63;5.90;;;;;;;9.65;74.08;99195.91;340321;29;1911;-72
2022/10/01 00:42:32;;;;;;;8.05;6.22;;;;;;;9.65;74.20;99195.91;339359;29;1185;-72
2022/10/01 00:42:44;;;;;;;8.82;6.38;;;;;;;9.66;74.21;99191.56;339324;29;1580;-72
2022/10/01 00:42:56;;;;;;;8.95;6.50;;;;;;;9.66;74.13;99191.56;340836;28;1474;-72
2022/10/01 00:43:27;;;;;;;10.38;6.53;;;;;;;9.67;73.77;99193.25;340534;29;1566;-72
2022/10/01 00:43:49;;;;;;;8.02;6.45;;;;;;;9.65;73.96;99192.47;340715;28;1588;-71
2022/10/01 00:44:30;;;;;;;8.25;6.32;;;;;;;9.60;74.17;99196.09;340497;29;1064;-71
2022/10/01 00:44:42;;;;;;;8.43;6.45;;;;;;;9.63;74.19;99191.69;339591;28;1722;-72
2022/10/01 00:44:55;;;;;;;8.75;6.20;;;;;;;9.64;74.07;99193.34;340046;29;1235;-71
2022/10/01 00:45:10;;;;;;;9.38;6.30;;;;;;;9.65;74.04;99195.91;339934;29;1271;-71
2022/10/01 00:45:22;;;;;;;9.38;6.28;;;;;;;9.64;74.10;99196.81;340809;28;1558;-71
2022/10/01 00:45:34;;;;;;;11.43;6.72;;;;;;;9.63;73.94;99200.31;340651;28;1538;-71
2022/10/01 00:45:47;;;;;;;10.65;6.90;;;;;;;9.65;73.62;99197.66;341549;28;1908;-72
2022/10/01 00:46:06;;;;;;;9.40;6.65;;;;;;;9.66;73.66;99191.56;342306;28;1066;-71
2022/10/01 00:46:24;;;;;;;8.85;6.45;;;;;;;9.67;73.43;99193.25;341555;28;1740;-71
2022/10/01 00:46:42;;;;;;;9.30;6.57;;;;;;;9.67;73.39;99198.44;340852;29;1648;-71
2022/10/01 00:46:57;;;;;;;8.93;6.30;;;;;;;9.67;73.44;99193.25;340450;29;1829;-72
2022/10/01 00:47:52;;;;;;;8.98;6.32;;;;;;;9.69;73.21;99197.50;340339;29;1692;-72
2022/10/01 00:48:04;;;;;;;9.15;6.47;;;;;;;9.67;73.44;99193.25;341199;28;1369;-71
2022/10/01 00:48:16;;;;;;;8.98;6.68;;;;;;;9.67;73.75;99198.44;340795;28;1629;-71
2022/10/01 00:48:33;;;;;;;9.10;6.55;;;;;;;9.68;73.49;99194.94;342418;28;1263;-71
2022/10/01 00:48:59;;;;;;;9.10;6.25;;;;;;;9.71;73.56;99192.25;340888;28;1697;-71
2022/10/01 00:49:19;;;;;;;9.40;6.40;;;;;;;9.71;73.43;99197.44;341422;29;1064;-72
2022/10/01 00:49:34;;;;;;;9.98;6.60;;;;;;;9.72;73.39;99191.34;341280;28;1049;-71
2022/10/01 00:49:49;;;;;;;9.48;6.60;;;;;;;9.73;73.28;99187.84;340058;28;1726;-72
2022/10/01 00:50:15;;;;;;;10.65;6.63;;;;;;;9.72;73.17;99196.56;340520;28;1713;-72
2022/10/01 00:50:33;;;;;;;9.95;6.45;;;;;;;9.71;73.80;99192.25;341268;29;1055;-72
2022/10/01 00:50:48;;;;;;;11.93;6.55;;;;;;;9.71;73.47;99189.66;340082;28;1667;-72
2022/10/01 00:51:00;;;;;;;9.70;6.40;;;;;;;9.71;73.40;99194.84;340059;28;1650;-72
2022/10/01 00:51:12;;;;;;;8.65;6.22;;;;;;;9.71;73.32;99189.66;341283;28;1061;-71
2022/10/01 00:51:32;;;;;;;7.63;6.10;;;;;;;9.71;73.63;99194.84;342285;28;1368;-71
2022/10/01 00:52:02;;;;;;;8.65;6.35;;;;;;;9.64;73.44;99189.03;340130;29;1532;-72
2022/10/01 00:52:21;;;;;;;7.95;6.57;;;;;;;9.64;73.80;99193.34;339502;29;1066;-72
2022/10/01 00:52:37;;;;;;;8.23;5.95;;;;;;;9.64;73.74;99189.03;339758;29;1074;-72
2022/10/01 00:52:54;;;;;;;10.05;6.32;;;;;;;9.65;73.63;99187.28;340864;29;1599;-71
2022/10/01 00:53:11;;;;;;;9.43;6.47;;;;;;;9.65;74.01;99189.88;339804;29;2029;-72
2022/10/01 00:53:24;;;;;;;8.98;6.53;;;;;;;9.61;74.01;99186.53;340424;28;1627;-72
2022/10/01 00:53:37;;;;;;;9.98;6.60;;;;;;;9.59;74.03;99191.78;340241;29;2107;-72
2022/10/01 00:53:49;;;;;;;9.25;6.40;;;;;;;9.60;74.01;99188.28;342346;28;1365;-72
2022/10/01 00:54:09;;;;;;;9.00;6.40;;;;;;;9.63;74.15;99186.50;341376;28;2135;-72
2022/10/01 00:54:33;;;;;;;9.18;6.60;;;;;;;9.62;73.85;99189.97;342253;28;1092;-72
2022/10/01 00:54:49;;;;;;;8.73;6.30;;;;;;;9.62;73.70;99187.38;341069;28;2099;-72
2022/10/01 00:55:10;;;;;;;8.65;6.30;;;;;;;9.58;73.84;99190.09;340321;28;1616;-72
2022/10/01 00:55:27;;;;;;;9.55;6.45;;;;;;;9.59;74.04;99180.56;341935;28;1291;-72
2022/10/01 00:55:54;;;;;;;8.63;6.20;;;;;;;9.57;73.97;99182.38;341549;28;1648;-72
2022/10/01 00:56:06;;;;;;;8.52;6.32;;;;;;;9.59;74.16;99180.56;339269;28;2303;-72
2022/10/01 00:56:18;;;;;;;8.52;6.22;;;;;;;9.59;73.98;99181.41;340370;28;1715;-72
2022/10/01 00:56:31;;;;;;;8.88;6.10;;;;;;;9.60;73.75;99182.28;339964;29;1080;-72
2022/10/01 00:56:44;;;;;;;10.00;6.00;;;;;;;9.59;73.67;99183.16;339912;28;1597;-72
2022/10/01 00:56:59;;;;;;;9.32;5.97;;;;;;;9.59;73.66;99191.78;340958;29;2031;-72
2022/10/01 00:57:15;;;;;;;7.45;6.13;;;;;;;9.56;73.93;99191.06;341460;28;1648;-72
2022/10/01 00:57:28;;;;;;;7.32;6.03;;;;;;;9.53;73.79;99184.22;340970;29;1088;-71
2022/10/01 00:57:42;;;;;;;7.85;6.00;;;;;;;9.54;73.91;99187.69;341118;28;1563;-71
2022/10/01 00:57:55;;;;;;;8.50;6.18;;;;;;;9.50;74.35;99179.16;341012;28;2002;-71
2022/10/01 00:58:11;;;;;;;8.65;6.43;;;;;;;9.53;74.26;99181.63;341378;29;950;-71
2022/10/01 00:58:24;;;;;;;9.70;6.60;;;;;;;9.53;74.42;99186.81;343304;28;1157;-72
2022/10/01 00:58:36;;;;;;;9.57;6.57;;;;;;;9.55;74.45;99173.78;341261;28;1460;-72
2022/10/01 00:58:50;;;;;;;7.97;6.28;;;;;;;9.56;74.51;99184.13;342379;28;1728;-71
2022/10/01 00:59:03;;;;;;;8.63;6.28;;;;;;;9.56;74.14;99184.13;342145;28;961;-71
2022/10/01 00:59:16;;;;;;;10.27;6.60;;;;;;;9.57;74.35;99182.38;342451;28;1547;-71
2022/10/01 00:59:29;;;;;;;11.00;6.78;;;;;;;9.56;74.19;99181.53;342311;28;1922;-71
2022/10/01 00:59:42;;;;;;;9.77;6.50;;;;;;;9.58;74.01;99190.09;341315;28;1655;-71
2022/10/01 00:59:58;;;;;;;9.52;6.47;;;;;;;9.59;73.96;99183.16;340612;28;2010;-72
2022/10/01 01:00:12;;;;;;;9.18;6.30;;;;;;;9.57;73.49;99178.00;341050;28;1595;-72
2022/10/01 01:00:24;;;;;;;8.00;6.03;;;;;;;9.55;73.74;99177.22;343613;28;1098;-72
2022/10/01 01:00:38;;;;;;;8.98;6.32;;;;;;;9.57;73.17;99177.16;343518;28;1780;-72
2022/10/01 01:00:52;;;;;;;8.95;6.35;;;;;;;9.56;73.77;99186.72;341373;28;1724;-72
2022/10/01 01:01:04;;;;;;;8.55;6.07;;;;;;;9.57;73.71;99174.59;340178;29;829;-72
2022/10/01 01:01:17;;;;;;;8.13;5.90;;;;;;;9.55;73.53;99179.81;340027;28;1209;-72
2022/10/01 01:01:29;;;;;;;8.65;5.88;;;;;;;9.57;73.23;99180.59;342125;28;1342;-72
2022/10/01 01:01:43;;;;;;;8.55;5.97;;;;;;;9.57;73.69;99183.19;340874;28;1886;-72
2022/10/01 01:01:55;;;;;;;8.18;5.90;;;;;;;9.55;73.38;99177.22;340556;29;1864;-72
2022/10/01 01:02:09;;;;;;;8.30;5.90;;;;;;;9.56;73.53;99176.34;340031;29;1654;-71
2022/10/01 01:02:21;;;;;;;8.02;5.97;;;;;;;9.58;73.75;99179.72;339542;28;1651;-72
2022/10/01 01:02:33;;;;;;;7.63;6.15;;;;;;;9.58;73.65;99177.13;340867;29;1065;-71
2022/10/01 01:02:45;;;;;;;8.52;6.32;;;;;;;9.58;73.56;99184.91;340793;28;1706;-72
2022/10/01 01:02:57;;;;;;;10.27;6.45;;;;;;;9.57;73.73;99185.78;340960;29;1817;-72
2022/10/01 01:03:10;;;;;;;9.75;6.35;;;;;;;9.57;73.88;99177.16;341000;29;1202;-72
2022/10/01 01:03:23;;;;;;;9.52;6.18;;;;;;;9.59;73.48;99185.75;341082;28;1217;-72
2022/10/01 01:03:35;;;;;;;9.38;6.13;;;;;;;9.59;73.65;99176.22;339715;28;1902;-72
2022/10/01 01:03:48;;;;;;;9.70;6.28;;;;;;;9.58;73.90;99182.31;339985;29;1866;-72
2022/10/01 01:04:00;;;;;;;9.13;6.50;;;;;;;9.57;73.95;99183.19;341045;29;1032;-72
2022/10/01 01:04:18;;;;;;;9.07;6.45;;;;;;;9.57;73.82;99180.59;340476;29;1547;-72
2022/10/01 01:04:31;;;;;;;8.43;5.93;;;;;;;9.56;73.87;99181.53;341054;29;1101;-72
2022/10/01 01:04:43;;;;;;;10.13;5.95;;;;;;;9.57;73.81;99182.38;340226;29;2185;-72
2022/10/01 01:04:55;;;;;;;11.07;5.93;;;;;;;9.55;74.10;99179.81;341782;28;2034;-71
2022/10/01 01:05:12;;;;;;;8.38;5.97;;;;;;;9.53;73.79;99179.03;342059;28;1559;-71
2022/10/01 01:05:24;;;;;;;8.40;6.00;;;;;;;9.50;74.06;99171.38;343122;28;1231;-71
2022/10/01 01:05:36;;;;;;;10.95;6.32;;;;;;;9.52;74.00;99173.91;343549;28;1029;-71
2022/10/01 01:05:49;;;;;;;12.63;6.65;;;;;;;9.52;73.83;99181.69;341906;28;1865;-71
2022/10/01 01:06:02;;;;;;;12.02;6.60;;;;;;;9.50;73.78;99179.16;341864;28;1474;-71
2022/10/01 01:06:14;;;;;;;9.65;6.35;;;;;;;9.51;73.88;99178.22;341230;28;1774;-72
2022/10/01 01:06:26;;;;;;;8.25;5.95;;;;;;;9.52;73.74;99185.13;342317;28;1162;-72
2022/10/01 01:06:38;;;;;;;7.90;6.00;;;;;;;9.52;73.88;99185.13;340689;28;1532;-71
2022/10/01 01:06:57;;;;;;;8.45;6.07;;;;;;;9.53;73.88;99176.44;341300;28;2199;-71
2022/10/01 01:07:10;;;;;;;9.00;5.85;;;;;;;9.55;73.94;99177.22;340155;29;1634;-71
2022/10/01 01:07:21;;;;;;;8.32;5.90;;;;;;;9.56;73.82;99184.13;341218;28;1327;-71
2022/10/01 01:07:35;;;;;;;7.90;6.00;;;;;;;9.55;73.85;99174.63;340496;28;1696;-71
2022/10/01 01:07:49;;;;;;;8.05;6.15;;;;;;;9.54;73.98;99177.31;339964;28;1839;-71
2022/10/01 01:08:02;;;;;;;8.07;6.10;;;;;;;9.52;74.21;99176.50;340625;29;1453;-71